createdAt,value
2022-08-25T00:00:23.072Z,23.43
2022-08-25T00:02:56.255Z,23.41
2022-08-25T00:05:33.426Z,23.36
2022-08-25T00:08:03.520Z,23.26
2022-08-25T00:10:32.440Z,23.20
2022-08-25T00:13:03.365Z,23.24
2022-08-25T00:15:32.554Z,23.23
2022-08-25T00:18:02.264Z,23.21
2022-08-25T00:20:31.581Z,23.20
2022-08-25T00:23:00.256Z,23.17
2022-08-25T00:25:28.750Z,23.16
2022-08-25T00:27:58.957Z,23.14
2022-08-25T00:30:28.778Z,23.00
2022-08-25T00:32:57.686Z,23.04
2022-08-25T00:35:27.608Z,22.97
2022-08-25T00:37:56.128Z,22.96
2022-08-25T00:40:27.753Z,22.97
2022-08-25T00:42:57.159Z,22.97
2022-08-25T00:45:26.444Z,22.95
2022-08-25T00:47:58.738Z,22.95
2022-08-25T00:50:30.406Z,23.00
2022-08-25T00:53:03.561Z,23.01
2022-08-25T00:55:38.127Z,23.00
2022-08-25T00:58:14.569Z,23.01
2022-08-25T01:00:47.340Z,23.04
2022-08-25T01:03:19.153Z,22.95
2022-08-25T01:05:48.159Z,22.97
2022-08-25T01:08:21.190Z,22.94
2022-08-25T01:10:51.476Z,22.92
2022-08-25T01:13:24.343Z,22.91
2022-08-25T01:15:57.094Z,22.89
2022-08-25T01:18:28.707Z,22.86
2022-08-25T01:20:59.971Z,22.81
2022-08-25T01:23:28.504Z,22.76
2022-08-25T01:26:06.118Z,22.65
2022-08-25T01:28:36.539Z,22.68
2022-08-25T01:31:05.293Z,22.71
2022-08-25T01:33:52.693Z,22.69
2022-08-25T01:36:23.788Z,22.67
2022-08-25T01:38:52.428Z,22.66
2022-08-25T01:41:31.982Z,22.61
2022-08-25T01:44:00.549Z,22.60
2022-08-25T01:46:29.414Z,22.55
2022-08-25T01:48:57.974Z,22.54
2022-08-25T01:51:31.809Z,22.55
2022-08-25T01:54:00.302Z,22.54
2022-08-25T01:56:28.670Z,22.47
2022-08-25T01:58:57.247Z,22.46
2022-08-25T02:01:26.423Z,22.37
2022-08-25T02:03:57.362Z,22.39
2022-08-25T02:06:32.292Z,22.38
2022-08-25T02:09:06.190Z,22.33
2022-08-25T02:11:36.778Z,22.25
2022-08-25T02:14:06.361Z,22.23
2022-08-25T02:16:37.948Z,22.22
2022-08-25T02:19:09.078Z,22.23
2022-08-25T02:21:39.487Z,22.24
2022-08-25T02:24:09.881Z,22.21
2022-08-25T02:26:38.647Z,22.16
2022-08-25T02:29:09.174Z,22.19
2022-08-25T02:31:39.228Z,22.16
2022-08-25T02:34:09.361Z,22.13
2022-08-25T02:36:40.277Z,22.13
2022-08-25T02:39:10.497Z,22.10
2022-08-25T02:41:39.978Z,22.14
2022-08-25T02:44:10.028Z,22.13
2022-08-25T02:46:39.478Z,22.18
2022-08-25T02:49:09.128Z,22.16
2022-08-25T02:51:39.277Z,22.14
2022-08-25T02:54:07.858Z,22.14
2022-08-25T02:56:36.443Z,22.07
2022-08-25T02:59:05.930Z,21.99
2022-08-25T03:01:34.615Z,22.00
2022-08-25T03:04:03.754Z,21.90
2022-08-25T03:06:32.531Z,21.88
2022-08-25T03:09:02.610Z,21.84
2022-08-25T03:11:31.812Z,21.83
2022-08-25T03:14:01.330Z,21.80
2022-08-25T03:16:29.808Z,21.86
2022-08-25T03:18:59.405Z,21.85
2022-08-25T03:21:30.186Z,21.86
2022-08-25T03:23:59.091Z,21.80
2022-08-25T03:26:57.641Z,21.82
2022-08-25T03:29:28.541Z,21.84
2022-08-25T03:31:58.972Z,21.86
2022-08-25T03:34:30.826Z,21.95
2022-08-25T03:37:00.347Z,21.91
2022-08-25T03:39:29.044Z,21.81
2022-08-25T03:41:58.903Z,21.68
2022-08-25T03:44:27.301Z,21.67
2022-08-25T03:46:55.742Z,21.66
2022-08-25T03:49:25.720Z,21.61
2022-08-25T03:51:56.036Z,21.51
2022-08-25T03:54:26.888Z,21.48
2022-08-25T03:56:55.690Z,21.45
2022-08-25T03:59:27.089Z,21.49
2022-08-25T04:01:55.745Z,21.45
2022-08-25T04:04:24.481Z,21.50
2022-08-25T04:06:53.398Z,21.53
2022-08-25T04:09:22.429Z,21.56
2022-08-25T04:11:53.285Z,21.54
2022-08-25T04:14:24.510Z,21.57
2022-08-25T04:16:53.936Z,21.46
2022-08-25T04:19:23.027Z,21.46
2022-08-25T04:21:51.742Z,21.39
2022-08-25T04:24:25.099Z,21.36
2022-08-25T04:26:54.129Z,21.40
2022-08-25T04:29:25.988Z,21.36
2022-08-25T04:31:56.218Z,21.26
2022-08-25T04:34:30.253Z,21.32
2022-08-25T04:37:01.215Z,21.33
2022-08-25T04:39:30.254Z,21.33
2022-08-25T04:42:00.514Z,21.37
2022-08-25T04:44:31.858Z,21.38
2022-08-25T04:47:00.424Z,21.38
2022-08-25T04:49:29.250Z,21.22
2022-08-25T04:51:57.884Z,21.27
2022-08-25T04:54:26.342Z,21.10
2022-08-25T04:56:58.404Z,21.11
2022-08-25T04:59:30.312Z,21.16
2022-08-25T05:02:03.114Z,21.21
2022-08-25T05:04:33.252Z,21.27
2022-08-25T05:07:02.468Z,21.24
2022-08-25T05:09:32.621Z,21.27
2022-08-25T05:12:02.950Z,21.30
2022-08-25T05:14:31.930Z,21.55
2022-08-25T05:17:02.067Z,22.00
2022-08-25T05:19:30.598Z,22.51
2022-08-25T05:21:59.062Z,22.54
2022-08-25T05:24:28.151Z,22.37
2022-08-25T05:26:57.093Z,22.11
2022-08-25T05:29:25.764Z,22.07
2022-08-25T05:31:54.494Z,21.86
2022-08-25T05:34:24.874Z,21.66
2022-08-25T05:36:53.267Z,21.54
2022-08-25T05:39:21.782Z,21.66
2022-08-25T05:41:50.213Z,21.67
2022-08-25T05:44:21.165Z,21.51
2022-08-25T05:46:51.292Z,21.44
2022-08-25T05:49:20.402Z,21.37
2022-08-25T05:51:50.342Z,21.30
2022-08-25T05:54:18.850Z,21.34
2022-08-25T05:56:47.503Z,21.41
2022-08-25T05:59:15.980Z,21.44
2022-08-25T06:02:01.729Z,21.52
2022-08-25T06:04:30.183Z,21.69
2022-08-25T06:06:59.959Z,21.73
2022-08-25T06:09:28.332Z,21.68
2022-08-25T06:11:56.854Z,21.72
2022-08-25T06:14:26.136Z,21.80
2022-08-25T06:16:54.857Z,21.88
2022-08-25T06:19:23.889Z,21.99
2022-08-25T06:21:56.420Z,21.94
2022-08-25T06:24:28.480Z,22.12
2022-08-25T06:26:58.038Z,22.15
2022-08-25T06:29:26.844Z,22.10
2022-08-25T06:31:55.300Z,22.43
2022-08-25T06:34:24.412Z,23.17
2022-08-25T06:36:53.572Z,23.95
2022-08-25T06:39:22.426Z,24.78
2022-08-25T06:41:54.383Z,25.20
2022-08-25T06:44:23.145Z,25.64
2022-08-25T06:46:52.440Z,26.10
2022-08-25T06:49:21.549Z,26.12
2022-08-25T06:51:50.668Z,26.26
2022-08-25T06:54:19.112Z,26.50
2022-08-25T06:56:49.747Z,26.74
2022-08-25T06:59:19.936Z,27.04
2022-08-25T07:01:50.211Z,27.76
2022-08-25T07:04:18.917Z,27.48
2022-08-25T07:06:47.402Z,27.83
2022-08-25T07:09:16.449Z,28.06
2022-08-25T07:11:46.473Z,28.23
2022-08-25T07:14:17.641Z,28.33
2022-08-25T07:16:50.271Z,28.44
2022-08-25T07:19:21.464Z,29.06
2022-08-25T07:22:13.151Z,29.63
2022-08-25T07:25:00.269Z,30.36
2022-08-25T07:27:28.673Z,29.99
2022-08-25T07:29:58.927Z,29.79
2022-08-25T07:32:28.822Z,29.34
2022-08-25T07:35:19.185Z,29.46
2022-08-25T07:37:51.380Z,29.66
2022-08-25T07:40:24.064Z,30.16
2022-08-25T07:43:05.148Z,29.97
2022-08-25T07:45:42.083Z,29.98
2022-08-25T07:48:26.629Z,30.24
2022-08-25T07:51:44.190Z,30.28
2022-08-25T07:54:37.784Z,31.00
2022-08-25T07:57:09.993Z,31.37
2022-08-25T07:59:41.874Z,31.25
2022-08-25T08:02:18.585Z,31.30
2022-08-25T08:05:00.901Z,31.73
2022-08-25T08:07:43.272Z,32.16
2022-08-25T08:13:11.285Z,31.98
2022-08-25T08:15:45.506Z,32.02
2022-08-25T08:18:14.001Z,32.27
2022-08-25T08:20:45.958Z,31.74
2022-08-25T08:23:14.971Z,31.40
2022-08-25T08:25:44.195Z,30.90
2022-08-25T08:28:12.761Z,30.68
2022-08-25T08:30:53.496Z,30.84
2022-08-25T08:33:25.101Z,31.51
2022-08-25T08:36:04.880Z,31.58
2022-08-25T08:38:34.853Z,31.69
2022-08-25T08:41:54.227Z,31.74
2022-08-25T08:44:35.255Z,31.62
2022-08-25T08:47:11.563Z,31.71
2022-08-25T08:49:49.461Z,31.85
2022-08-25T08:52:25.853Z,32.23
2022-08-25T08:55:06.484Z,31.29
2022-08-25T08:57:44.912Z,31.12
2022-08-25T09:00:14.996Z,30.61
2022-08-25T09:02:57.940Z,31.49
2022-08-25T09:05:30.789Z,31.50
2022-08-25T09:08:08.634Z,31.41
2022-08-25T09:10:54.214Z,31.59
2022-08-25T09:13:35.582Z,32.26
2022-08-25T09:16:31.892Z,31.85
2022-08-25T09:19:23.732Z,31.57
2022-08-25T09:21:59.293Z,31.14
2022-08-25T09:24:45.179Z,31.01
2022-08-25T09:27:22.039Z,31.39
2022-08-25T09:30:03.120Z,32.12
2022-08-25T09:32:38.987Z,32.21
2022-08-25T09:35:16.749Z,31.28
2022-08-25T09:37:56.732Z,31.51
2022-08-25T09:40:31.215Z,31.72
2022-08-25T09:43:02.636Z,31.40
2022-08-25T09:45:38.306Z,32.09
2022-08-25T09:48:24.917Z,32.59
2022-08-25T09:51:00.047Z,32.98
2022-08-25T09:53:29.357Z,33.48
2022-08-25T09:56:07.623Z,33.59
2022-08-25T09:58:36.519Z,33.16
2022-08-25T10:01:15.544Z,32.42
2022-08-25T10:03:58.495Z,32.05
2022-08-25T10:06:30.494Z,32.32
2022-08-25T10:09:04.185Z,32.70
2022-08-25T10:11:42.383Z,33.44
2022-08-25T10:14:23.840Z,33.76
2022-08-25T10:16:54.654Z,33.86
2022-08-25T10:19:30.400Z,33.54
2022-08-25T10:22:11.068Z,33.61
2022-08-25T10:24:44.073Z,32.16
2022-08-25T10:27:28.724Z,31.35
2022-08-25T10:30:14.578Z,30.92
2022-08-25T10:33:14.964Z,30.72
2022-08-25T10:36:00.301Z,30.67
2022-08-25T10:38:46.079Z,30.18
2022-08-25T10:41:38.973Z,30.97
2022-08-25T10:44:43.926Z,31.69
2022-08-25T10:47:46.397Z,32.25
2022-08-25T10:50:30.455Z,31.94
2022-08-25T10:53:22.177Z,31.51
2022-08-25T10:56:07.389Z,30.88
2022-08-25T10:59:20.574Z,31.43
2022-08-25T11:02:07.669Z,30.95
2022-08-25T11:04:42.119Z,30.35
2022-08-25T11:07:18.300Z,30.04
2022-08-25T11:09:51.045Z,29.50
2022-08-25T11:12:30.592Z,29.93
2022-08-25T11:15:05.553Z,30.23
2022-08-25T11:17:44.510Z,30.74
2022-08-25T11:20:27.052Z,31.42
2022-08-25T11:23:09.588Z,31.50
2022-08-25T11:25:44.383Z,32.14
2022-08-25T11:28:19.870Z,32.60
2022-08-25T11:30:53.732Z,31.82
2022-08-25T11:33:24.964Z,31.41
2022-08-25T11:35:58.255Z,32.17
2022-08-25T11:38:44.051Z,32.29
2022-08-25T11:41:28.148Z,32.49
2022-08-25T11:44:17.499Z,32.02
2022-08-25T11:47:06.781Z,31.50
2022-08-25T11:49:53.322Z,30.59
2022-08-25T11:52:47.198Z,30.53
2022-08-25T11:55:22.837Z,30.92
2022-08-25T11:57:55.057Z,31.21
2022-08-25T12:00:47.962Z,31.39
2022-08-25T12:04:14.927Z,32.06
2022-08-25T12:07:26.867Z,31.85
2022-08-25T12:10:22.679Z,31.59
2022-08-25T12:13:10.524Z,31.81
2022-08-25T12:15:59.646Z,31.52
2022-08-25T12:18:46.048Z,31.79
2022-08-25T12:21:30.689Z,31.60
2022-08-25T12:24:22.330Z,31.86
2022-08-25T12:26:58.038Z,31.87
2022-08-25T12:29:33.974Z,31.52
2022-08-25T12:32:41.121Z,30.78
2022-08-25T12:35:29.585Z,30.92
2022-08-25T12:38:05.936Z,30.41
2022-08-25T12:40:39.866Z,30.30
2022-08-25T12:43:13.832Z,30.32
2022-08-25T12:45:50.624Z,30.47
2022-08-25T12:49:05.313Z,30.39
2022-08-25T12:51:57.378Z,30.29
2022-08-25T12:54:48.545Z,29.96
2022-08-25T12:57:33.567Z,29.89
2022-08-25T13:00:16.278Z,29.69
2022-08-25T13:03:30.733Z,29.85
2022-08-25T13:06:22.413Z,30.14
2022-08-25T13:09:46.747Z,30.21
2022-08-25T13:12:22.528Z,30.55
2022-08-25T13:14:56.408Z,30.59
2022-08-25T13:17:30.350Z,30.53
2022-08-25T13:20:18.352Z,30.40
2022-08-25T13:22:57.199Z,30.25
2022-08-25T13:25:32.651Z,30.05
2022-08-25T13:28:10.869Z,30.20
2022-08-25T13:30:40.266Z,29.88
2022-08-25T13:33:20.247Z,30.02
2022-08-25T13:36:11.507Z,30.26
2022-08-25T13:38:40.790Z,30.16
2022-08-25T13:41:23.713Z,30.01
2022-08-25T13:44:00.881Z,30.06
2022-08-25T13:46:31.692Z,29.92
2022-08-25T13:49:06.470Z,30.53
2022-08-25T13:51:38.900Z,30.66
2022-08-25T13:54:20.955Z,30.43
2022-08-25T13:56:49.443Z,30.52
2022-08-25T13:59:27.584Z,30.50
2022-08-25T14:01:57.416Z,30.49
2022-08-25T14:04:32.497Z,30.59
2022-08-25T14:07:34.140Z,30.55
2022-08-25T14:10:07.917Z,30.67
2022-08-25T14:12:44.843Z,30.63
2022-08-25T14:15:33.418Z,30.76
2022-08-25T14:18:06.538Z,30.71
2022-08-25T14:20:37.430Z,30.42
2022-08-25T14:23:09.920Z,30.22
2022-08-25T14:25:40.458Z,30.45
2022-08-25T14:28:15.740Z,30.55
2022-08-25T14:30:49.448Z,30.37
2022-08-25T14:33:23.590Z,30.30
2022-08-25T14:35:54.493Z,30.21
2022-08-25T14:38:24.213Z,30.05
2022-08-25T14:40:53.879Z,30.18
2022-08-25T14:43:24.051Z,30.18
2022-08-25T14:46:03.884Z,30.40
2022-08-25T14:48:37.083Z,30.42
2022-08-25T14:51:06.561Z,30.68
2022-08-25T14:53:35.453Z,30.78
2022-08-25T14:56:08.501Z,30.89
2022-08-25T14:58:48.519Z,31.03
2022-08-25T15:01:29.161Z,31.01
2022-08-25T15:04:05.089Z,30.99
2022-08-25T15:06:36.823Z,30.91
2022-08-25T15:09:08.158Z,30.90
2022-08-25T15:11:41.680Z,30.87
2022-08-25T15:14:12.286Z,30.85
2022-08-25T15:16:46.241Z,30.85
2022-08-25T15:19:18.559Z,30.52
2022-08-25T15:21:49.638Z,30.53
2022-08-25T15:24:19.807Z,30.50
2022-08-25T15:29:29.753Z,30.40
2022-08-25T15:32:01.023Z,30.24
2022-08-25T15:34:29.808Z,30.07
2022-08-25T15:36:59.248Z,29.97
2022-08-25T15:39:28.430Z,29.96
2022-08-25T15:41:57.192Z,29.94
2022-08-25T15:44:29.446Z,29.89
2022-08-25T15:47:00.575Z,29.78
2022-08-25T15:49:31.284Z,29.77
2022-08-25T15:52:00.357Z,29.81
2022-08-25T15:54:29.525Z,29.82
2022-08-25T15:56:59.870Z,29.84
2022-08-25T15:59:29.354Z,29.93
2022-08-25T16:01:59.484Z,30.03
2022-08-25T16:04:29.696Z,29.97
2022-08-25T16:06:58.821Z,30.03
2022-08-25T16:09:27.750Z,29.97
2022-08-25T16:12:04.051Z,30.04
2022-08-25T16:14:35.437Z,30.11
2022-08-25T16:17:06.341Z,30.17
2022-08-25T16:19:38.051Z,30.18
2022-08-25T16:22:08.767Z,30.16
2022-08-25T16:24:41.013Z,30.16
2022-08-25T16:27:12.235Z,30.15
2022-08-25T16:29:42.358Z,30.12
2022-08-25T16:32:14.341Z,30.14
2022-08-25T16:34:44.231Z,30.27
2022-08-25T16:37:13.612Z,30.24
2022-08-25T16:39:45.544Z,30.17
2022-08-25T16:42:15.145Z,30.08
2022-08-25T16:44:43.571Z,30.07
2022-08-25T16:47:17.550Z,29.96
2022-08-25T16:49:47.527Z,29.97
2022-08-25T16:52:33.750Z,29.83
2022-08-25T16:55:15.053Z,29.75
2022-08-25T16:57:47.549Z,29.79
2022-08-25T17:00:21.740Z,29.81
2022-08-25T17:02:54.320Z,29.69
2022-08-25T17:05:22.816Z,29.68
2022-08-25T17:08:05.499Z,29.61
2022-08-25T17:10:38.040Z,29.65
2022-08-25T17:13:07.804Z,29.45
2022-08-25T17:15:40.931Z,29.52
2022-08-25T17:18:12.665Z,29.58
2022-08-25T17:20:42.296Z,29.47
2022-08-25T17:23:13.064Z,29.41
2022-08-25T17:25:43.649Z,29.30
2022-08-25T17:28:13.196Z,29.40
2022-08-25T17:30:43.226Z,29.29
2022-08-25T17:33:14.249Z,29.28
2022-08-25T17:35:46.781Z,29.29
2022-08-25T17:38:16.096Z,29.24
2022-08-25T17:40:44.671Z,29.22
2022-08-25T17:43:13.347Z,29.22
2022-08-25T17:45:42.879Z,29.19
2022-08-25T17:48:14.069Z,29.14
2022-08-25T17:50:43.344Z,29.07
2022-08-25T17:53:12.118Z,28.91
2022-08-25T17:55:43.236Z,28.95
2022-08-25T17:58:14.896Z,29.00
2022-08-25T18:00:47.151Z,28.81
2022-08-25T18:03:16.978Z,28.72
2022-08-25T18:05:46.136Z,28.69
2022-08-25T18:08:17.074Z,28.62
2022-08-25T18:10:48.960Z,28.57
2022-08-25T18:13:17.766Z,28.60
2022-08-25T18:15:46.821Z,28.51
2022-08-25T18:18:17.233Z,28.57
2022-08-25T18:20:47.225Z,28.46
2022-08-25T18:23:15.719Z,28.38
2022-08-25T18:25:44.877Z,28.32
2022-08-25T18:28:13.495Z,28.34
2022-08-25T18:30:43.199Z,28.32
2022-08-25T18:33:12.447Z,28.27
2022-08-25T18:35:42.384Z,28.25
2022-08-25T18:38:28.151Z,28.19
2022-08-25T18:40:58.966Z,28.14
2022-08-25T18:43:28.933Z,28.12
2022-08-25T18:46:00.902Z,28.04
2022-08-25T18:48:30.191Z,28.04
2022-08-25T18:51:01.180Z,28.01
2022-08-25T18:53:37.344Z,27.97
2022-08-25T18:56:18.739Z,27.94
2022-08-25T18:58:47.720Z,27.91
2022-08-25T19:01:17.161Z,27.88
2022-08-25T19:03:46.971Z,27.85
2022-08-25T19:06:19.164Z,27.80
2022-08-25T19:08:48.046Z,27.79
2022-08-25T19:11:22.264Z,27.74
2022-08-25T19:13:51.511Z,27.69
2022-08-25T19:16:35.586Z,27.68
2022-08-25T19:19:06.613Z,27.62
2022-08-25T19:21:38.604Z,27.59
2022-08-25T19:24:08.121Z,27.54
2022-08-25T19:26:38.076Z,27.53
2022-08-25T19:29:10.252Z,27.48
2022-08-25T19:31:40.429Z,27.45
2022-08-25T19:34:11.128Z,27.43
2022-08-25T19:36:41.373Z,27.40
2022-08-25T19:39:12.546Z,27.36
2022-08-25T19:41:46.148Z,27.33
2022-08-25T19:44:14.934Z,27.32
2022-08-25T19:46:46.677Z,27.30
2022-08-25T19:49:25.653Z,27.25
2022-08-25T19:51:57.549Z,27.22
2022-08-25T19:54:33.609Z,27.17
2022-08-25T19:57:02.678Z,27.17
2022-08-25T19:59:42.581Z,27.12
2022-08-25T20:02:16.914Z,27.08
2022-08-25T20:04:49.955Z,27.04
2022-08-25T20:07:23.798Z,26.97
2022-08-25T20:09:53.321Z,26.96
2022-08-25T20:12:23.478Z,26.92
2022-08-25T20:14:53.226Z,26.90
2022-08-25T20:17:24.507Z,26.88
2022-08-25T20:19:57.319Z,26.87
2022-08-25T20:22:30.499Z,26.84
2022-08-25T20:25:01.229Z,26.79
2022-08-25T20:27:34.963Z,26.77
2022-08-25T20:30:06.850Z,26.73
2022-08-25T20:32:36.798Z,26.69
2022-08-25T20:35:13.205Z,26.68
2022-08-25T20:37:44.019Z,26.64
2022-08-25T20:40:15.306Z,26.61
2022-08-25T20:42:44.312Z,26.56
2022-08-25T20:45:15.690Z,26.52
2022-08-25T20:47:45.399Z,26.48
2022-08-25T20:50:14.208Z,26.50
2022-08-25T20:52:45.004Z,26.49
2022-08-25T20:55:13.947Z,26.40
2022-08-25T20:57:42.298Z,26.36
2022-08-25T21:00:15.691Z,26.33
2022-08-25T21:02:46.202Z,26.29
2022-08-25T21:05:15.903Z,26.26
2022-08-25T21:07:45.730Z,26.28
2022-08-25T21:10:14.711Z,26.26
2022-08-25T21:12:45.050Z,26.28
2022-08-25T21:15:18.111Z,26.30
2022-08-25T21:17:53.167Z,26.32
2022-08-25T21:20:24.764Z,26.30
2022-08-25T21:22:55.377Z,26.22
2022-08-25T21:25:25.387Z,26.19
2022-08-25T21:27:54.285Z,26.18
2022-08-25T21:30:22.733Z,26.15
2022-08-25T21:32:53.945Z,26.11
2022-08-25T21:35:23.669Z,26.04
2022-08-25T21:37:54.857Z,26.02
2022-08-25T21:40:24.337Z,25.99
2022-08-25T21:42:53.225Z,25.97
2022-08-25T21:45:22.188Z,25.98
2022-08-25T21:47:51.903Z,25.99
2022-08-25T21:50:21.729Z,25.95
2022-08-25T21:52:54.411Z,25.92
2022-08-25T21:55:24.949Z,25.89
2022-08-25T21:57:54.797Z,25.85
2022-08-25T22:00:24.102Z,25.82
2022-08-25T22:02:53.578Z,25.80
2022-08-25T22:05:22.328Z,25.77
2022-08-25T22:07:50.705Z,25.73
2022-08-25T22:10:21.162Z,25.74
2022-08-25T22:12:52.934Z,25.67
2022-08-25T22:15:23.291Z,25.64
2022-08-25T22:17:52.060Z,25.64
2022-08-25T22:20:21.115Z,25.62
2022-08-25T22:22:49.458Z,25.58
2022-08-25T22:25:18.247Z,25.52
2022-08-25T22:27:46.599Z,25.47
2022-08-25T22:30:16.909Z,25.40
2022-08-25T22:32:45.726Z,25.43
2022-08-25T22:35:14.173Z,25.39
2022-08-25T22:37:43.146Z,25.41
2022-08-25T22:40:13.199Z,25.38
2022-08-25T22:42:47.479Z,25.31
2022-08-25T22:45:18.550Z,25.35
2022-08-25T22:47:47.437Z,25.30
2022-08-25T22:50:17.295Z,25.26
2022-08-25T22:52:46.696Z,25.25
2022-08-25T22:55:16.401Z,25.17
2022-08-25T22:57:45.382Z,25.07
2022-08-25T23:00:17.830Z,25.07
2022-08-25T23:02:47.801Z,25.13
2022-08-25T23:05:16.945Z,25.20
2022-08-25T23:07:45.582Z,25.18
2022-08-25T23:10:15.500Z,25.17
2022-08-25T23:12:44.188Z,25.11
2022-08-25T23:15:14.072Z,25.03
2022-08-25T23:17:44.088Z,25.07
2022-08-25T23:20:30.971Z,25.06
2022-08-25T23:22:59.875Z,25.03
2022-08-25T23:25:28.474Z,25.03
2022-08-25T23:27:56.900Z,24.90
2022-08-25T23:30:27.529Z,24.86
2022-08-25T23:32:58.265Z,24.85
2022-08-25T23:35:27.128Z,24.70
2022-08-25T23:38:00.922Z,24.70
2022-08-25T23:40:30.590Z,24.76
2022-08-25T23:43:00.074Z,24.71
2022-08-25T23:45:28.675Z,24.70
2022-08-25T23:48:00.054Z,24.70
2022-08-25T23:50:28.631Z,24.79
2022-08-25T23:52:57.056Z,24.76
2022-08-25T23:55:25.695Z,24.69
2022-08-25T23:57:56.101Z,24.62
